Time;durP1;ratioP1;P1;durP2;ratioP2;P2;SDS_P1;SDS_P2;PMS_P1;PMS_P2;Temp;Humidity;BMP_temperature;BMP_pressure;BME280_temperature;BME280_humidity;BME280_pressure;Samples;Min_cycle;Max_cycle;Signal;HPM_P1;HPM_P2
2021/07/06 00:00:30;;;;;;;9.32;7.63;;;;;;;17.14;83.13;100452.13;10583626;28;20052;-60
2021/07/06 00:05:33;;;;;;;8.43;7.32;;;;;;;17.05;85.03;100452.97;10585285;28;20406;-62
2021/07/06 00:10:36;;;;;;;10.77;7.18;;;;;;;17.02;84.79;100448.78;10584379;28;20043;-61
2021/07/06 00:15:38;;;;;;;9.13;7.43;;;;;;;16.93;85.96;100443.47;10584906;28;20059;-62
2021/07/06 00:20:40;;;;;;;11.65;7.05;;;;;;;16.87;86.99;100431.66;10584997;28;20051;-61
2021/07/06 00:25:43;;;;;;;7.22;5.90;;;;;;;17.03;86.05;100428.44;10584424;28;20054;-62
2021/07/06 00:30:45;;;;;;;6.03;5.25;;;;;;;16.97;86.56;100402.56;10584345;28;20040;-62
2021/07/06 00:35:48;;;;;;;8.70;4.40;;;;;;;17.10;85.79;100389.91;10583626;28;20449;-61
2021/07/06 00:40:55;;;;;;;5.65;5.03;;;;;;;17.18;86.07;100386.53;10584493;28;20054;-62
2021/07/06 00:45:59;;;;;;;5.32;3.92;;;;;;;17.18;85.88;100389.19;10582884;28;20051;-61
2021/07/06 00:51:01;;;;;;;6.28;3.50;;;;;;;17.33;85.07;100401.03;10583970;28;20051;-61
2021/07/06 00:56:04;;;;;;;4.68;3.20;;;;;;;17.35;85.54;100399.06;10583177;28;20051;-62
2021/07/06 01:01:06;;;;;;;2.90;2.70;;;;;;;17.32;84.42;100387.94;10582176;28;20047;-61
2021/07/06 01:06:10;;;;;;;3.78;2.65;;;;;;;17.47;83.84;100389.16;10583570;28;20047;-61
2021/07/06 01:11:17;;;;;;;3.63;2.45;;;;;;;17.37;84.72;100378.59;10583119;28;20047;-62
2021/07/06 01:16:19;;;;;;;2.28;2.17;;;;;;;17.44;83.72;100384.97;10582796;28;20486;-61
2021/07/06 01:21:22;;;;;;;3.10;2.58;;;;;;;17.46;84.08;100393.59;10582530;28;20056;-63
2021/07/06 01:26:25;;;;;;;4.50;2.83;;;;;;;17.36;84.95;100405.19;10582262;28;20055;-61
2021/07/06 01:31:28;;;;;;;2.30;2.08;;;;;;;17.30;85.39;100406.59;10582166;28;20521;-62
2021/07/06 01:36:30;;;;;;;3.28;2.97;;;;;;;17.12;86.22;100395.88;10582039;28;20484;-61
2021/07/06 01:41:32;;;;;;;2.60;2.40;;;;;;;17.18;86.59;100370.66;10582593;28;20043;-60
2021/07/06 01:46:39;;;;;;;3.75;2.33;;;;;;;16.90;88.44;100363.47;10580608;28;20044;-62
2021/07/06 01:51:43;;;;;;;3.22;2.67;;;;;;;17.06;87.66;100349.69;10582067;28;20124;-62
2021/07/06 01:56:47;;;;;;;5.70;2.90;;;;;;;16.93;88.66;100330.63;10581529;28;20044;-62
2021/07/06 02:01:50;;;;;;;3.22;2.83;;;;;;;17.14;88.19;100330.44;10581160;28;20051;-61
2021/07/06 02:06:52;;;;;;;4.90;3.53;;;;;;;17.11;87.41;100325.44;10581512;28;20116;-62
2021/07/06 02:11:54;;;;;;;4.15;3.75;;;;;;;16.90;88.54;100322.97;10581341;28;20047;-62
2021/07/06 02:16:57;;;;;;;3.40;3.15;;;;;;;16.99;88.07;100327.41;10581293;28;20055;-60
2021/07/06 02:21:59;;;;;;;3.63;3.00;;;;;;;16.88;88.35;100323.09;10581487;28;20063;-61
2021/07/06 02:27:02;;;;;;;2.83;2.63;;;;;;;16.89;87.81;100294.84;10587004;28;20559;-63
2021/07/06 02:32:04;;;;;;;3.10;2.88;;;;;;;16.69;88.87;100270.22;10589251;28;20050;-61
2021/07/06 02:37:07;;;;;;;4.13;3.72;;;;;;;16.77;88.82;100267.69;10588690;28;20411;-62
2021/07/06 02:42:09;;;;;;;3.33;3.03;;;;;;;16.66;89.12;100259.91;10588899;28;20373;-62
2021/07/06 02:47:11;;;;;;;4.47;2.88;;;;;;;16.53;89.86;100254.94;10588651;28;20047;-61
2021/07/06 02:52:14;;;;;;;5.47;3.90;;;;;;;16.38;90.67;100254.50;10587999;28;20048;-62
2021/07/06 02:57:37;;;;;;;4.28;3.05;;;;;;;16.44;89.80;100248.69;10588019;28;20483;-62
2021/07/06 03:02:45;;;;;;;5.30;3.10;;;;;;;16.58;89.54;100226.28;10588174;28;20059;-61
2021/07/06 03:07:48;;;;;;;3.75;3.42;;;;;;;16.55;89.67;100212.53;10587886;28;20421;-61
2021/07/06 03:12:52;;;;;;;5.18;2.55;;;;;;;16.52;89.46;100203.91;10586561;28;20089;-61
2021/07/06 03:17:55;;;;;;;3.08;2.88;;;;;;;16.36;89.50;100185.13;10588081;28;20116;-62
2021/07/06 03:22:59;;;;;;;2.60;2.40;;;;;;;16.45;89.29;100176.34;10586160;28;20055;-61
2021/07/06 03:28:03;;;;;;;2.53;2.33;;;;;;;16.45;89.01;100163.16;10587080;28;20047;-62
2021/07/06 03:33:07;;;;;;;2.97;2.78;;;;;;;16.49;89.23;100179.53;10587011;28;20044;-61
2021/07/06 03:38:10;;;;;;;4.20;3.88;;;;;;;16.48;88.34;100188.47;10585861;28;20050;-60
2021/07/06 03:43:12;;;;;;;4.40;4.03;;;;;;;16.41;88.74;100188.19;10586444;28;20048;-62
2021/07/06 03:48:15;;;;;;;5.63;3.63;;;;;;;16.50;88.52;100160.09;10586273;28;20121;-62
2021/07/06 03:53:17;;;;;;;4.35;3.28;;;;;;;16.50;88.57;100168.00;10586052;28;20479;-61
2021/07/06 03:58:19;;;;;;;3.15;2.88;;;;;;;16.54;88.80;100172.03;10585828;28;20043;-61
2021/07/06 04:03:25;;;;;;;4.13;3.45;;;;;;;16.67;87.88;100161.16;10585658;28;20410;-62
2021/07/06 04:08:31;;;;;;;3.00;2.80;;;;;;;16.71;87.88;100146.69;10585305;28;20122;-61
2021/07/06 04:13:33;;;;;;;4.10;2.58;;;;;;;16.87;87.20;100156.69;10585217;28;20040;-61
2021/07/06 04:18:36;;;;;;;5.93;2.60;;;;;;;16.98;87.05;100138.00;10585300;28;20060;-61
2021/07/06 04:23:39;;;;;;;3.70;2.42;;;;;;;16.96;87.39;100133.81;10584924;28;20048;-61
2021/07/06 04:28:41;;;;;;;4.50;3.75;;;;;;;16.94;87.50;100131.31;10583342;28;20039;-61
2021/07/06 04:33:44;;;;;;;3.22;1.73;;;;;;;17.05;86.84;100125.03;10584444;28;20051;-62
2021/07/06 04:38:46;;;;;;;2.83;2.40;;;;;;;17.06;86.82;100124.88;10584084;28;20506;-62
2021/07/06 04:43:49;;;;;;;4.65;2.53;;;;;;;17.07;86.67;100134.47;10584149;28;20051;-62
2021/07/06 04:48:51;;;;;;;2.10;1.90;;;;;;;17.33;85.59;100144.38;10583569;28;20047;-62
2021/07/06 04:53:53;;;;;;;2.47;2.22;;;;;;;17.21;87.02;100148.19;10583584;28;20415;-62
2021/07/06 04:58:56;;;;;;;7.15;2.50;;;;;;;17.29;86.15;100164.16;10583612;28;20047;-62
2021/07/06 05:03:59;;;;;;;5.00;2.20;;;;;;;17.35;86.31;100160.94;10583358;28;20044;-61
2021/07/06 05:09:01;;;;;;;5.28;2.00;;;;;;;17.45;85.22;100163.53;10581625;28;20047;-62
2021/07/06 05:14:04;;;;;;;3.78;2.22;;;;;;;17.29;86.69;100169.44;10583350;28;20048;-62
2021/07/06 05:19:06;;;;;;;5.47;2.03;;;;;;;17.51;85.65;100181.44;10583205;28;20491;-61
2021/07/06 05:24:09;;;;;;;3.97;1.80;;;;;;;17.66;84.18;100188.91;10583014;28;20055;-61
2021/07/06 05:29:11;;;;;;;3.92;1.58;;;;;;;17.57;85.01;100191.44;10581131;28;20047;-61
2021/07/06 05:34:14;;;;;;;2.30;1.55;;;;;;;17.79;82.66;100187.53;10582515;28;20047;-62
2021/07/06 05:39:16;;;;;;;1.92;1.55;;;;;;;17.63;84.60;100188.22;10582274;28;20047;-62
2021/07/06 05:44:18;;;;;;;6.28;2.22;;;;;;;17.66;84.90;100202.97;10582061;28;20386;-62
2021/07/06 05:49:21;;;;;;;4.00;1.55;;;;;;;17.95;83.60;100167.53;10580577;28;20055;-61
2021/07/06 05:54:23;;;;;;;3.67;1.70;;;;;;;17.90;83.87;100146.78;10581773;28;20048;-61
2021/07/06 05:59:25;;;;;;;5.18;2.03;;;;;;;17.91;84.46;100140.53;10584145;28;20043;-61
2021/07/06 06:04:28;;;;;;;2.15;1.88;;;;;;;18.00;84.08;100159.97;10590535;28;20069;-61
2021/07/06 06:09:30;;;;;;;4.28;1.90;;;;;;;18.05;83.46;100175.41;10590306;28;20043;-62
2021/07/06 06:14:32;;;;;;;2.00;1.63;;;;;;;18.09;83.43;100176.75;10590124;28;20044;-61
2021/07/06 06:19:35;;;;;;;5.97;1.67;;;;;;;17.99;84.37;100161.78;10589559;28;20059;-62
2021/07/06 06:24:40;;;;;;;4.63;1.80;;;;;;;18.24;82.89;100171.75;10589805;28;20479;-62
2021/07/06 06:29:42;;;;;;;3.08;1.60;;;;;;;18.05;83.72;100162.16;10589939;28;20048;-61
2021/07/06 06:34:45;;;;;;;3.75;1.90;;;;;;;18.11;83.82;100165.03;10589419;28;20052;-61
2021/07/06 06:39:47;;;;;;;6.25;2.38;;;;;;;18.14;83.03;100164.75;10589014;27;20388;-61
2021/07/06 06:44:50;;;;;;;6.68;2.25;;;;;;;18.16;83.35;100161.94;10588994;28;20048;-62
2021/07/06 06:49:52;;;;;;;2.63;1.83;;;;;;;18.31;83.18;100156.94;10588505;28;20395;-61
2021/07/06 06:54:54;;;;;;;2.50;2.20;;;;;;;18.34;83.07;100177.78;10588369;28;20407;-62
2021/07/06 06:59:58;;;;;;;5.43;2.58;;;;;;;18.43;82.21;100173.41;10588784;28;20108;-62
2021/07/06 07:05:01;;;;;;;4.68;1.90;;;;;;;18.40;84.08;100174.53;10588196;28;20052;-61
2021/07/06 07:10:04;;;;;;;4.07;2.03;;;;;;;18.49;83.56;100170.97;10587457;28;20050;-61
2021/07/06 07:15:09;;;;;;;3.00;1.75;;;;;;;18.57;83.82;100164.88;10587728;28;20066;-61
2021/07/06 07:20:12;;;;;;;2.72;1.65;;;;;;;18.75;81.36;100165.66;10586367;28;20487;-62
2021/07/06 07:25:14;;;;;;;2.63;1.30;;;;;;;18.69;82.00;100176.06;10586357;28;20075;-62
2021/07/06 07:30:18;;;;;;;2.25;1.30;;;;;;;18.94;78.36;100172.59;10587245;28;20051;-63
2021/07/06 07:35:21;;;;;;;0.95;0.95;;;;;;;18.95;77.18;100165.47;10586747;28;20093;-61
2021/07/06 07:40:23;;;;;;;2.75;1.10;;;;;;;18.91;79.09;100174.72;10587647;28;20048;-62
2021/07/06 07:45:26;;;;;;;2.35;1.00;;;;;;;18.95;79.25;100186.69;10585365;28;20044;-61
2021/07/06 07:50:28;;;;;;;10.20;1.70;;;;;;;19.07;77.34;100188.09;10586808;28;20044;-62
2021/07/06 07:55:31;;;;;;;4.15;1.33;;;;;;;19.24;77.41;100191.66;10585948;28;20511;-62
2021/07/06 08:00:33;;;;;;;2.45;1.10;;;;;;;19.40;77.18;100198.84;10585040;28;20391;-61
2021/07/06 08:05:35;;;;;;;1.20;1.20;;;;;;;19.43;75.50;100205.66;10585848;28;20073;-61
2021/07/06 08:10:38;;;;;;;2.65;1.05;;;;;;;19.49;75.20;100203.19;10585194;28;20050;-61
2021/07/06 08:15:40;;;;;;;1.20;1.10;;;;;;;19.33;74.70;100200.47;10584266;28;20047;-61
2021/07/06 08:20:43;;;;;;;1.20;0.80;;;;;;;19.27;74.27;100193.16;10585165;28;20059;-63
2021/07/06 08:25:45;;;;;;;4.35;0.95;;;;;;;19.23;75.12;100203.28;10584282;28;20040;-61
2021/07/06 08:30:48;;;;;;;1.38;0.90;;;;;;;19.46;74.86;100211.47;10584564;28;20052;-63
2021/07/06 08:35:50;;;;;;;1.92;0.77;;;;;;;20.27;71.47;100206.53;10583242;28;20048;-61
2021/07/06 08:40:53;;;;;;;2.15;0.70;;;;;;;21.11;67.48;100215.09;10585199;28;20052;-62
2021/07/06 08:45:56;;;;;;;1.75;0.80;;;;;;;21.11;67.60;100220.41;10584316;28;20048;-61
2021/07/06 08:50:59;;;;;;;3.95;0.70;;;;;;;20.90;67.87;100225.47;10582733;28;20055;-62
2021/07/06 08:56:02;;;;;;;1.02;0.70;;;;;;;22.00;64.32;100219.38;10582546;28;20051;-61
2021/07/06 09:01:04;;;;;;;7.35;0.70;;;;;;;21.41;66.83;100228.63;10583474;28;20055;-61
2021/07/06 09:06:10;;;;;;;3.67;1.30;;;;;;;21.76;61.65;100236.34;10582071;28;20106;-62
2021/07/06 09:11:16;;;;;;;0.70;0.65;;;;;;;21.74;64.34;100243.66;10582842;28;20483;-61
2021/07/06 09:16:23;;;;;;;3.67;0.98;;;;;;;21.48;64.05;100250.94;10582666;28;20055;-62
2021/07/06 09:21:25;;;;;;;0.65;0.65;;;;;;;22.63;62.11;100233.41;10581649;28;20043;-63
2021/07/06 09:26:32;;;;;;;0.70;0.70;;;;;;;22.48;59.54;100227.19;10582704;28;20048;-61
2021/07/06 09:31:37;;;;;;;5.40;1.00;;;;;;;23.54;59.20;100235.97;10582879;28;20058;-61
2021/07/06 09:36:47;;;;;;;2.65;1.27;;;;;;;23.05;57.45;100224.00;10582036;28;20491;-61
2021/07/06 09:41:58;;;;;;;1.50;0.60;;;;;;;23.02;56.67;100232.38;10582246;28;20043;-60
2021/07/06 09:47:05;;;;;;;1.47;0.93;;;;;;;23.29;58.48;100225.59;10582054;28;20043;-58
2021/07/06 09:52:21;;;;;;;3.92;0.80;;;;;;;23.89;57.51;100244.22;10581895;28;20054;-59
2021/07/06 09:57:31;;;;;;;4.50;0.93;;;;;;;24.33;55.76;100251.25;10581821;28;20048;-59
2021/07/06 10:02:35;;;;;;;4.45;1.02;;;;;;;23.07;57.61;100253.22;10580566;28;20483;-58
2021/07/06 10:07:41;;;;;;;4.10;0.80;;;;;;;22.63;58.61;100260.09;10582172;28;20051;-59
2021/07/06 10:12:48;;;;;;;4.20;1.10;;;;;;;23.51;55.42;100269.22;10581377;28;20402;-59
2021/07/06 10:17:52;;;;;;;8.48;1.23;;;;;;;22.31;57.29;100269.16;10581876;28;20077;-59
2021/07/06 10:23:00;;;;;;;3.67;0.90;;;;;;;22.05;57.00;100273.78;10581426;28;20044;-59
2021/07/06 10:28:15;;;;;;;2.00;1.27;;;;;;;21.64;59.05;100273.19;10580815;28;20047;-59
2021/07/06 10:33:32;;;;;;;6.07;0.70;;;;;;;21.62;62.14;100280.50;10580349;28;20055;-59
2021/07/06 10:38:39;;;;;;;8.23;1.05;;;;;;;22.94;56.66;100291.16;10581807;28;20039;-59
2021/07/06 10:43:44;;;;;;;9.32;0.85;;;;;;;21.98;58.61;100288.03;10581288;28;20051;-58
2021/07/06 10:49:06;;;;;;;4.15;0.90;;;;;;;21.21;61.74;100305.41;10587553;28;20056;-59
2021/07/06 10:54:20;;;;;;;;;;;;;;;21.98;57.44;100330.66;10588674;28;20044;-58
2021/07/06 10:59:31;;;;;;;3.78;0.98;;;;;;;22.79;54.88;100329.31;10588474;28;20386;-63
2021/07/06 11:04:43;;;;;;;4.43;1.00;;;;;;;23.68;54.89;100327.81;10588105;28;20053;-61
2021/07/06 11:09:48;;;;;;;3.17;1.10;;;;;;;24.78;53.46;100339.34;10587549;28;20052;-63
2021/07/06 11:14:54;;;;;;;4.15;1.00;;;;;;;24.36;50.72;100343.66;10587854;28;20081;-63
2021/07/06 11:20:04;;;;;;;7.43;1.27;;;;;;;24.48;49.37;100344.81;10588436;28;20063;-63
2021/07/06 11:25:19;;;;;;;6.13;1.10;;;;;;;22.75;49.95;100367.25;10587357;28;20052;-62
2021/07/06 11:30:33;;;;;;;7.85;1.00;;;;;;;23.43;50.68;100362.81;10587033;28;20510;-62
2021/07/06 11:35:38;;;;;;;9.20;1.27;;;;;;;24.59;46.18;100383.66;10587044;28;20047;-63
2021/07/06 11:40:43;;;;;;;8.02;1.05;;;;;;;24.72;46.68;100383.78;10587287;28;20059;-59
2021/07/06 11:46:00;;;;;;;6.10;1.30;;;;;;;25.13;44.82;100369.75;10586357;28;20051;-60
2021/07/06 11:51:05;;;;;;;5.47;1.20;;;;;;;24.13;49.05;100397.31;10586095;28;20532;-60
2021/07/06 11:56:09;;;;;;;14.13;1.45;;;;;;;22.85;47.54;100405.19;10585900;28;20052;-61
2021/07/06 12:01:13;;;;;;;3.38;0.98;;;;;;;21.70;52.48;100419.00;10584304;28;20422;-60
2021/07/06 12:06:21;;;;;;;4.70;1.38;;;;;;;22.54;49.61;100427.38;10584765;28;20051;-61
2021/07/06 12:11:29;;;;;;;7.05;1.75;;;;;;;22.78;51.27;100429.09;10583646;28;20390;-60
2021/07/06 12:16:34;;;;;;;7.43;1.17;;;;;;;22.27;47.79;100421.50;10584807;28;20051;-61
2021/07/06 12:21:45;;;;;;;4.95;1.00;;;;;;;22.89;49.17;100429.69;10584938;28;20075;-60
2021/07/06 12:26:53;;;;;;;4.90;1.00;;;;;;;23.02;48.55;100437.09;10585046;28;20043;-62
2021/07/06 12:31:55;;;;;;;2.60;1.00;;;;;;;23.29;50.11;100455.25;10584597;28;20535;-61
2021/07/06 12:36:59;;;;;;;7.13;1.30;;;;;;;23.78;46.41;100445.13;10584863;28;20082;-61
2021/07/06 12:42:15;;;;;;;6.70;2.53;;;;;;;22.85;48.80;100469.25;10583914;28;20075;-62
2021/07/06 12:47:24;;;;;;;4.22;1.52;;;;;;;23.46;46.75;100455.13;10583713;28;20100;-61
2021/07/06 12:52:44;;;;;;;4.35;0.85;;;;;;;22.27;51.88;100468.66;10583902;28;20046;-61
2021/07/06 12:57:54;;;;;;;2.47;1.17;;;;;;;21.87;50.40;100470.44;10582215;28;20058;-62
2021/07/06 13:03:10;;;;;;;6.05;1.52;;;;;;;23.15;50.04;100475.56;10582454;28;20047;-62
2021/07/06 13:08:33;;;;;;;6.35;1.10;;;;;;;22.47;48.94;100493.09;10581487;28;20043;-62
2021/07/06 13:13:36;;;;;;;2.42;1.15;;;;;;;22.35;49.62;100494.50;10582978;28;20058;-61
2021/07/06 13:18:40;;;;;;;4.00;1.00;;;;;;;21.95;50.29;100507.72;10582592;28;20044;-62
2021/07/06 13:23:43;;;;;;;5.63;1.55;;;;;;;21.94;54.30;100518.56;10582598;28;20057;-61
2021/07/06 13:28:52;;;;;;;8.57;1.63;;;;;;;21.66;51.45;100519.75;10580957;28;20048;-62
2021/07/06 13:33:55;;;;;;;6.93;1.60;;;;;;;22.23;52.73;100521.50;10582317;28;20048;-62
2021/07/06 13:39:01;;;;;;;7.88;1.58;;;;;;;21.67;56.86;100537.41;10581979;28;20429;-61
2021/07/06 13:44:04;;;;;;;3.58;0.90;;;;;;;21.65;54.42;100519.91;10582403;28;20575;-62
2021/07/06 13:49:06;;;;;;;7.75;1.02;;;;;;;21.95;51.13;100531.72;10581894;28;20047;-62
2021/07/06 13:54:20;;;;;;;4.97;1.10;;;;;;;22.32;49.62;100540.19;10581215;28;20086;-63
2021/07/06 13:59:22;;;;;;;3.33;1.67;;;;;;;21.91;50.61;100529.56;10581335;28;20043;-63
2021/07/06 14:04:25;;;;;;;7.90;1.20;;;;;;;21.52;51.04;100558.56;10581442;28;20083;-63
2021/07/06 14:09:31;;;;;;;5.22;1.15;;;;;;;21.03;52.03;100568.25;10579761;28;20052;-62
2021/07/06 14:14:33;;;;;;;3.67;1.20;;;;;;;20.85;53.70;100576.34;10581082;28;20499;-62
2021/07/06 14:19:36;;;;;;;2.95;0.90;;;;;;;20.68;50.91;100573.63;10581262;28;20499;-62
2021/07/06 14:24:38;;;;;;;7.88;1.30;;;;;;;20.93;54.15;100589.66;10589695;28;20055;-62
2021/07/06 14:29:40;;;;;;;5.97;1.20;;;;;;;21.04;53.54;100592.03;10589202;28;20056;-63
2021/07/06 14:34:43;;;;;;;4.28;1.23;;;;;;;20.34;54.03;100601.00;10589391;28;20043;-61
2021/07/06 14:39:46;;;;;;;2.97;1.33;;;;;;;20.30;52.83;100609.44;10589005;28;20036;-62
2021/07/06 14:44:48;;;;;;;4.22;1.08;;;;;;;20.47;54.68;100603.22;10588386;28;20052;-62
2021/07/06 14:49:51;;;;;;;5.13;1.25;;;;;;;21.44;51.98;100600.28;10588768;28;20048;-62
2021/07/06 14:54:53;;;;;;;2.80;1.13;;;;;;;21.63;52.55;100617.81;10588490;28;20040;-62
2021/07/06 14:59:55;;;;;;;6.38;1.10;;;;;;;21.69;50.65;100634.00;10588182;28;20399;-61
2021/07/06 15:04:58;;;;;;;2.85;0.95;;;;;;;22.94;51.36;100617.66;10588041;28;20051;-62
2021/07/06 15:10:01;;;;;;;5.25;1.10;;;;;;;23.50;47.85;100614.03;10587898;28;20047;-62
2021/07/06 15:15:03;;;;;;;3.63;0.90;;;;;;;22.60;50.11;100631.28;10587260;28;20091;-63
2021/07/06 15:20:06;;;;;;;3.10;1.00;;;;;;;21.63;52.18;100616.00;10587175;28;20403;-63
2021/07/06 15:25:10;;;;;;;7.68;1.30;;;;;;;21.36;53.20;100641.03;10586172;28;20051;-63
2021/07/06 15:30:13;;;;;;;1.92;0.88;;;;;;;21.13;51.66;100632.81;10585773;28;20441;-62
2021/07/06 15:35:17;;;;;;;5.78;0.80;;;;;;;21.15;54.16;100644.16;10586416;28;20517;-63
2021/07/06 15:40:24;;;;;;;2.30;0.93;;;;;;;20.41;54.98;100649.06;10586671;28;20039;-62
2021/07/06 15:45:29;;;;;;;5.30;1.23;;;;;;;20.87;55.27;100659.50;10586815;28;20043;-62
2021/07/06 15:50:31;;;;;;;1.83;1.00;;;;;;;20.87;54.32;100656.84;10586155;28;20058;-63
2021/07/06 15:55:34;;;;;;;3.17;1.30;;;;;;;22.69;50.67;100648.94;10586344;28;20047;-62
2021/07/06 16:00:36;;;;;;;4.30;1.23;;;;;;;22.35;50.40;100660.66;10584829;28;20048;-62
2021/07/06 16:05:39;;;;;;;4.65;1.63;;;;;;;21.10;51.97;100657.94;10585741;28;20044;-62
2021/07/06 16:10:41;;;;;;;4.07;1.05;;;;;;;20.94;52.46;100657.84;10585786;28;20058;-62
2021/07/06 16:15:44;;;;;;;7.47;1.65;;;;;;;21.17;55.46;100660.78;10584031;28;20047;-62
2021/07/06 16:20:46;;;;;;;3.72;0.90;;;;;;;20.97;54.49;100670.84;10585666;28;20043;-61
2021/07/06 16:25:49;;;;;;;4.60;1.45;;;;;;;20.86;56.96;100676.44;10584841;28;20054;-61
2021/07/06 16:30:53;;;;;;;5.53;1.38;;;;;;;20.12;56.51;100731.72;10584523;28;20044;-61
2021/07/06 16:36:04;;;;;;;3.75;0.68;;;;;;;18.66;64.16;100755.25;10584486;28;20047;-62
2021/07/06 16:41:07;;;;;;;;;;;;;;;17.88;65.67;100764.97;10585330;28;20078;-62
2021/07/06 16:46:09;;;;;;;0.68;0.50;;;;;;;17.43;68.88;100767.03;10583465;28;19919;-62
2021/07/06 18:06:55;;;;;;;4.22;0.60;;;;;;;18.29;66.84;100803.66;10581308;28;20121;-61
2021/07/06 18:11:58;;;;;;;3.00;0.73;;;;;;;18.11;68.97;100803.50;10581399;28;20052;-62
2021/07/06 18:17:02;;;;;;;3.33;0.57;;;;;;;17.86;69.20;100810.09;10580647;28;20475;-61
2021/07/06 18:22:06;;;;;;;1.63;0.63;;;;;;;17.97;68.55;100817.97;10578084;28;20052;-62
2021/07/06 18:27:08;;;;;;;4.57;1.35;;;;;;;17.82;69.55;100821.94;10577822;28;20065;-60
2021/07/06 18:32:11;;;;;;;3.00;0.63;;;;;;;18.20;67.59;100834.44;10579681;28;20124;-62
2021/07/06 18:37:14;;;;;;;2.00;0.90;;;;;;;17.81;68.13;100836.16;10578863;28;20051;-61
2021/07/06 18:42:18;;;;;;;2.33;0.80;;;;;;;17.86;68.52;100849.00;10579340;28;20054;-61
2021/07/06 18:47:20;;;;;;;2.88;0.90;;;;;;;17.63;70.30;100838.56;10560579;28;20047;-62
2021/07/06 18:52:23;;;;;;;1.33;0.88;;;;;;;17.68;69.61;100836.38;10578368;28;20048;-62
2021/07/06 18:57:27;;;;;;;2.45;0.90;;;;;;;17.48;70.46;100850.50;10578489;28;20048;-61
2021/07/06 19:07:36;;;;;;;3.08;0.80;;;;;;;17.19;73.49;100859.94;10581956;28;20050;-62
2021/07/06 19:12:38;;;;;;;2.30;0.90;;;;;;;17.11;73.48;100867.69;10583937;28;20399;-61
2021/07/06 19:17:45;;;;;;;2.65;0.82;;;;;;;17.08;72.00;100874.06;10546717;28;1110521;-62
2021/07/06 19:22:49;;;;;;;4.63;1.20;;;;;;;16.84;74.16;100889.28;10586342;28;20052;-62
2021/07/06 19:28:16;;;;;;;2.38;0.77;;;;;;;16.75;74.96;100890.06;10585905;28;20047;-62
2021/07/06 19:33:23;;;;;;;2.92;0.95;;;;;;;16.58;75.67;100896.72;10586250;28;20081;-62
2021/07/06 19:38:27;;;;;;;3.28;1.60;;;;;;;16.50;75.62;100906.09;10585367;28;20069;-62
2021/07/06 19:43:30;;;;;;;2.35;1.00;;;;;;;16.70;75.10;100919.50;10586697;28;20048;-62
2021/07/06 19:48:32;;;;;;;4.25;1.10;;;;;;;16.24;78.71;100926.69;10586163;28;20054;-62
2021/07/06 19:53:35;;;;;;;3.88;1.13;;;;;;;16.45;76.07;100934.69;10585060;28;20483;-63
2021/07/06 19:58:37;;;;;;;5.38;1.33;;;;;;;15.95;78.51;100947.47;10586597;28;20052;-61
2021/07/06 20:03:41;;;;;;;2.20;1.10;;;;;;;16.05;77.89;100951.06;10586597;28;20051;-62
2021/07/06 20:08:43;;;;;;;2.83;1.13;;;;;;;15.89;78.38;100962.00;10584414;28;20055;-61
2021/07/06 20:13:46;;;;;;;3.65;1.48;;;;;;;15.84;78.61;100963.31;10585781;28;20135;-62
2021/07/06 20:18:48;;;;;;;5.10;1.30;;;;;;;15.76;78.85;100970.00;10584209;28;20047;-62
2021/07/06 20:23:51;;;;;;;5.32;1.70;;;;;;;15.78;78.48;100976.03;10585189;28;20117;-61
2021/07/06 20:28:53;;;;;;;5.22;1.10;;;;;;;15.39;80.79;100982.47;10566838;28;20520;-61
2021/07/06 20:33:55;;;;;;;4.93;1.85;;;;;;;15.32;80.63;100982.09;10583451;28;20052;-61
2021/07/06 20:39:01;;;;;;;5.00;1.70;;;;;;;15.19;80.55;100987.41;10584882;28;20051;-61
2021/07/06 20:44:03;;;;;;;7.07;1.88;;;;;;;14.82;82.62;100997.19;10584076;28;20055;-62
2021/07/06 20:49:06;;;;;;;4.20;1.65;;;;;;;14.92;82.40;100998.19;10583921;28;20044;-62
2021/07/06 20:54:08;;;;;;;5.03;1.65;;;;;;;14.73;82.66;101008.41;10583892;28;20047;-62
2021/07/06 20:59:11;;;;;;;6.50;1.25;;;;;;;14.51;83.30;101017.78;10582084;28;20352;-61
2021/07/06 21:04:13;;;;;;;3.85;1.35;;;;;;;14.78;82.25;101024.72;10582289;28;20060;-62
2021/07/06 21:09:16;;;;;;;11.85;1.77;;;;;;;14.71;81.65;101026.97;10581608;28;20048;-61
2021/07/06 21:14:18;;;;;;;3.47;1.50;;;;;;;14.68;82.34;101028.00;10581524;28;20502;-63
2021/07/06 21:19:20;;;;;;;3.38;1.90;;;;;;;14.49;82.95;101025.81;10582454;28;20051;-62
2021/07/06 21:24:23;;;;;;;5.38;1.50;;;;;;;14.20;83.95;101032.25;10583995;28;20055;-61
2021/07/06 21:29:25;;;;;;;6.20;1.55;;;;;;;14.48;83.13;101032.00;10582458;28;20039;-61
2021/07/06 21:34:27;;;;;;;1.83;1.25;;;;;;;14.47;83.18;101032.97;10582459;28;20075;-61
2021/07/06 21:39:30;;;;;;;3.97;1.63;;;;;;;14.64;82.75;101038.88;10564184;28;20044;-62
2021/07/06 21:44:32;;;;;;;5.20;1.60;;;;;;;14.40;83.07;101034.34;10582230;28;20055;-62
2021/07/06 21:49:34;;;;;;;1.65;1.55;;;;;;;14.37;83.83;101033.72;10581369;28;20510;-62
2021/07/06 21:54:37;;;;;;;2.65;1.42;;;;;;;14.27;83.82;101034.38;10581524;28;20052;-62
2021/07/06 21:59:43;;;;;;;5.88;2.10;;;;;;;14.21;83.81;101032.16;10582367;28;20071;-61
2021/07/06 22:04:47;;;;;;;5.53;1.45;;;;;;;14.24;82.78;101038.97;10580263;28;20515;-62
2021/07/06 22:09:49;;;;;;;4.28;1.42;;;;;;;14.50;82.34;101045.91;10563120;28;20435;-62
2021/07/06 22:14:51;;;;;;;6.70;1.70;;;;;;;14.40;82.12;101044.88;10581124;28;20054;-62
2021/07/06 22:19:54;;;;;;;5.30;2.13;;;;;;;14.29;82.12;101050.91;10581666;28;20070;-61
2021/07/06 22:24:56;;;;;;;3.90;1.80;;;;;;;14.39;81.55;101052.88;10581091;28;20426;-62
2021/07/06 22:29:59;;;;;;;5.65;2.05;;;;;;;14.20;82.76;101062.06;10581537;28;20047;-61
2021/07/06 22:35:01;;;;;;;5.22;2.05;;;;;;;13.81;84.41;101063.81;10580878;28;20052;-61
2021/07/06 22:40:05;;;;;;;5.10;1.50;;;;;;;13.92;83.34;101060.47;10580186;28;20106;-61
2021/07/06 22:45:08;;;;;;;3.25;1.52;;;;;;;13.89;83.68;101071.19;10587533;28;20047;-61
2021/07/06 22:50:11;;;;;;;6.65;1.75;;;;;;;13.69;83.93;101073.34;10587755;28;20044;-63
2021/07/06 22:55:13;;;;;;;3.20;1.65;;;;;;;13.69;84.12;101081.25;10588643;28;20040;-62
2021/07/06 23:00:16;;;;;;;5.00;2.00;;;;;;;13.70;84.63;101082.09;10587486;28;20074;-62
2021/07/06 23:05:18;;;;;;;3.20;1.88;;;;;;;13.92;84.19;101081.53;10587286;28;20051;-63
2021/07/06 23:10:21;;;;;;;3.10;1.55;;;;;;;13.85;83.50;101082.88;10587047;28;20048;-62
2021/07/06 23:15:23;;;;;;;2.83;1.38;;;;;;;13.78;84.63;101084.22;10588362;28;20043;-62
2021/07/06 23:20:31;;;;;;;3.63;2.08;;;;;;;13.77;84.32;101083.38;10586492;28;20059;-62
2021/07/06 23:25:34;;;;;;;4.25;2.60;;;;;;;13.78;84.95;101095.59;10588124;28;20134;-63
2021/07/06 23:30:36;;;;;;;3.08;1.65;;;;;;;13.92;83.09;101084.16;10587017;28;20536;-62
2021/07/06 23:35:38;;;;;;;2.65;1.50;;;;;;;13.87;84.57;101095.00;10587170;28;20054;-62
2021/07/06 23:40:41;;;;;;;9.15;2.13;;;;;;;13.78;84.76;101100.84;10586453;28;20059;-63
2021/07/06 23:45:44;;;;;;;5.25;2.08;;;;;;;14.03;84.57;101100.06;10586795;28;20055;-63
2021/07/06 23:50:47;;;;;;;4.22;1.90;;;;;;;13.74;84.88;101099.38;10586626;28;20043;-62
2021/07/06 23:55:50;;;;;;;6.60;2.00;;;;;;;13.92;84.75;101100.78;10586245;28;20048;-63
